createdAt,value
2017-08-14T00:02:11.004Z,4.60
2017-08-14T00:04:38.539Z,4.97
2017-08-14T00:07:06.828Z,4.43
2017-08-14T00:09:34.373Z,4.40
2017-08-14T00:12:01.913Z,4.80
2017-08-14T00:14:29.439Z,4.60
2017-08-14T00:16:56.967Z,4.90
2017-08-14T00:19:24.484Z,5.40
2017-08-14T00:21:52.018Z,4.63
2017-08-14T00:24:19.553Z,5.33
2017-08-14T00:26:47.922Z,5.67
2017-08-14T00:29:15.447Z,3.50
2017-08-14T00:31:43.727Z,4.40
2017-08-14T00:34:11.280Z,4.50
2017-08-14T00:36:38.858Z,4.80
2017-08-14T00:39:06.368Z,5.03
2017-08-14T00:41:33.927Z,4.33
2017-08-14T00:44:01.451Z,5.10
2017-08-14T00:46:28.972Z,4.70
2017-08-14T00:48:56.503Z,4.60
2017-08-14T00:51:24.020Z,4.40
2017-08-14T00:53:51.550Z,4.40
2017-08-14T00:56:19.093Z,4.53
2017-08-14T00:58:46.650Z,3.93
2017-08-14T01:01:14.967Z,4.83
2017-08-14T01:03:42.500Z,4.70
2017-08-14T01:06:10.058Z,4.87
2017-08-14T01:08:37.588Z,4.67
2017-08-14T01:11:05.862Z,3.97
2017-08-14T01:13:33.409Z,4.30
2017-08-14T01:16:00.996Z,4.33
2017-08-14T01:18:29.268Z,4.30
2017-08-14T01:20:57.577Z,4.00
2017-08-14T01:23:25.143Z,4.17
2017-08-14T01:25:52.671Z,3.77
2017-08-14T01:28:20.183Z,4.40
2017-08-14T01:30:47.727Z,4.20
2017-08-14T01:33:15.248Z,4.70
2017-08-14T01:35:42.785Z,5.10
2017-08-14T01:38:11.102Z,5.10
2017-08-14T01:40:38.617Z,6.03
2017-08-14T01:43:06.190Z,6.30
2017-08-14T01:45:33.713Z,5.60
2017-08-14T01:48:01.280Z,5.70
2017-08-14T01:50:28.790Z,6.20
2017-08-14T01:52:56.310Z,4.83
2017-08-14T01:55:24.624Z,6.00
2017-08-14T01:57:52.151Z,6.20
2017-08-14T02:00:19.701Z,7.60
2017-08-14T02:02:48.027Z,6.77
2017-08-14T02:05:15.557Z,8.80
2017-08-14T02:07:43.092Z,10.50
2017-08-14T02:10:10.671Z,11.50
2017-08-14T02:12:38.195Z,8.67
2017-08-14T02:15:05.713Z,7.60
2017-08-14T02:17:33.277Z,8.73
2017-08-14T02:20:00.795Z,10.07
2017-08-14T02:22:28.324Z,9.63
2017-08-14T02:24:56.652Z,8.97
2017-08-14T02:27:24.195Z,8.43
2017-08-14T02:29:51.739Z,7.90
2017-08-14T02:32:19.271Z,7.33
2017-08-14T02:34:46.834Z,7.37
2017-08-14T02:37:14.397Z,7.63
2017-08-14T02:39:41.916Z,7.70
2017-08-14T02:42:09.444Z,9.47
2017-08-14T02:44:36.987Z,6.93
2017-08-14T02:47:04.511Z,8.30
2017-08-14T02:49:32.073Z,8.10
2017-08-14T02:51:59.624Z,8.30
2017-08-14T02:54:27.145Z,8.87
2017-08-14T02:56:54.683Z,9.90
2017-08-14T02:59:22.232Z,10.57
2017-08-14T03:01:49.748Z,10.40
2017-08-14T03:04:17.300Z,10.90
2017-08-14T03:06:44.830Z,11.73
2017-08-14T03:09:12.383Z,7.43
2017-08-14T03:11:40.019Z,10.10
2017-08-14T03:14:07.533Z,9.97
2017-08-14T03:16:35.092Z,9.37
2017-08-14T03:19:02.682Z,9.60
2017-08-14T03:21:30.972Z,9.83
2017-08-14T03:23:58.516Z,9.67
2017-08-14T03:26:26.028Z,9.63
2017-08-14T03:28:53.572Z,9.00
2017-08-14T03:31:21.087Z,9.40
2017-08-14T03:33:49.416Z,9.07
2017-08-14T03:36:16.922Z,9.77
2017-08-14T03:38:45.225Z,8.60
2017-08-14T03:41:12.793Z,10.20
2017-08-14T03:43:40.327Z,8.50
2017-08-14T03:46:07.860Z,9.77
2017-08-14T03:48:36.165Z,9.50
2017-08-14T03:51:03.681Z,9.10
2017-08-14T03:53:31.234Z,8.73
2017-08-14T03:55:58.770Z,9.73
2017-08-14T03:58:26.292Z,9.57
2017-08-14T04:00:53.849Z,9.73
2017-08-14T04:03:21.381Z,9.57
2017-08-14T04:05:48.897Z,7.30
2017-08-14T04:08:16.444Z,8.67
2017-08-14T04:10:43.967Z,8.53
2017-08-14T04:13:11.537Z,7.87
2017-08-14T04:15:39.060Z,8.67
2017-08-14T04:18:06.582Z,7.20
2017-08-14T04:20:34.120Z,7.80
2017-08-14T04:23:01.649Z,7.77
2017-08-14T04:25:29.201Z,8.20
2017-08-14T04:27:56.719Z,7.90
2017-08-14T04:30:24.278Z,8.30
2017-08-14T04:32:51.791Z,7.30
2017-08-14T04:35:19.348Z,8.97
2017-08-14T04:37:46.879Z,8.10
2017-08-14T04:40:15.180Z,8.00
2017-08-14T04:42:42.727Z,7.60
2017-08-14T04:45:11.013Z,6.70
2017-08-14T04:47:38.563Z,6.93
2017-08-14T04:50:06.109Z,8.37
2017-08-14T04:52:33.619Z,7.60
2017-08-14T04:55:01.167Z,7.13
2017-08-14T04:57:28.699Z,7.97
2017-08-14T04:59:56.254Z,7.73
2017-08-14T05:02:24.533Z,7.13
2017-08-14T05:04:52.064Z,6.87
2017-08-14T05:07:19.595Z,7.17
2017-08-14T05:09:47.115Z,6.70
2017-08-14T05:12:14.659Z,7.70
2017-08-14T05:14:42.175Z,6.60
2017-08-14T05:17:09.736Z,7.00
2017-08-14T05:19:37.272Z,7.40
2017-08-14T05:22:04.779Z,6.73
2017-08-14T05:24:33.099Z,7.60
2017-08-14T05:27:00.640Z,6.20
2017-08-14T05:29:28.175Z,5.70
2017-08-14T05:31:56.455Z,5.70
2017-08-14T05:34:24.773Z,5.67
2017-08-14T05:36:52.309Z,6.10
2017-08-14T05:39:20.560Z,6.40
2017-08-14T05:41:48.073Z,5.53
2017-08-14T05:44:15.979Z,5.87
2017-08-14T05:46:44.274Z,5.17
2017-08-14T05:49:11.827Z,5.20
2017-08-14T05:51:39.393Z,5.53
2017-08-14T05:54:06.915Z,5.17
2017-08-14T05:56:34.436Z,4.30
2017-08-14T05:59:01.964Z,5.20
2017-08-14T06:01:29.528Z,5.10
2017-08-14T06:03:57.052Z,4.60
2017-08-14T06:06:25.349Z,4.67
2017-08-14T06:08:52.916Z,4.57
2017-08-14T06:11:20.435Z,4.30
2017-08-14T06:13:48.004Z,4.27
2017-08-14T06:16:15.519Z,4.37
2017-08-14T06:18:43.036Z,3.73
2017-08-14T06:21:10.581Z,4.20
2017-08-14T06:23:38.094Z,4.13
2017-08-14T06:26:05.659Z,3.50
2017-08-14T06:28:33.196Z,3.40
2017-08-14T06:31:00.715Z,3.30
2017-08-14T06:33:28.253Z,3.70
2017-08-14T06:35:55.767Z,3.90
2017-08-14T06:38:23.321Z,3.30
2017-08-14T06:40:50.859Z,3.43
2017-08-14T06:43:18.405Z,3.97
2017-08-14T06:45:45.966Z,3.43
2017-08-14T06:48:13.482Z,2.80
2017-08-14T06:50:40.993Z,3.50
2017-08-14T06:53:08.555Z,3.03
2017-08-14T06:55:36.072Z,3.27
2017-08-14T06:58:03.603Z,3.27
2017-08-14T07:00:31.180Z,2.60
2017-08-14T07:02:58.788Z,3.10
2017-08-14T07:05:26.304Z,3.20
2017-08-14T07:07:54.591Z,3.30
2017-08-14T07:10:22.136Z,2.60
2017-08-14T07:12:50.427Z,3.40
2017-08-14T07:15:18.009Z,3.20
2017-08-14T07:17:45.525Z,3.50
2017-08-14T07:20:13.054Z,3.20
2017-08-14T07:22:40.615Z,3.50
2017-08-14T07:25:08.128Z,2.60
2017-08-14T07:27:35.644Z,4.93
2017-08-14T07:30:03.189Z,2.60
2017-08-14T07:32:30.729Z,2.80
2017-08-14T07:34:58.275Z,3.80
2017-08-14T07:37:25.804Z,2.53
2017-08-14T07:39:53.354Z,2.50
2017-08-14T07:42:20.915Z,2.20
2017-08-14T07:44:49.226Z,2.30
2017-08-14T07:47:16.776Z,2.47
2017-08-14T07:49:44.320Z,2.37
2017-08-14T07:52:11.863Z,2.50
2017-08-14T07:54:40.196Z,2.10
2017-08-14T07:57:07.708Z,2.80
2017-08-14T07:59:35.230Z,2.17
2017-08-14T08:02:02.753Z,2.10
2017-08-14T08:04:30.273Z,1.80
2017-08-14T08:06:57.812Z,1.97
2017-08-14T08:09:25.351Z,2.30
2017-08-14T08:11:52.867Z,2.03
2017-08-14T08:14:20.416Z,1.90
2017-08-14T08:16:47.976Z,1.80
2017-08-14T08:19:15.512Z,2.20
2017-08-14T08:21:43.063Z,1.70
2017-08-14T08:24:10.597Z,1.73
2017-08-14T08:26:38.137Z,3.43
2017-08-14T08:29:05.699Z,1.50
2017-08-14T08:31:33.204Z,1.70
2017-08-14T08:34:00.735Z,1.90
2017-08-14T08:36:28.276Z,1.53
2017-08-14T08:38:57.836Z,1.60
2017-08-14T08:41:25.392Z,1.90
2017-08-14T08:43:52.926Z,2.07
2017-08-14T08:46:21.271Z,1.70
2017-08-14T08:48:48.792Z,1.77
2017-08-14T08:51:16.937Z,1.40
2017-08-14T08:53:45.241Z,2.10
2017-08-14T08:56:12.818Z,1.50
2017-08-14T08:58:40.356Z,1.47
2017-08-14T09:01:07.870Z,2.20
2017-08-14T09:03:35.416Z,1.80
2017-08-14T09:06:02.941Z,1.60
2017-08-14T09:08:30.498Z,1.70
2017-08-14T09:10:58.020Z,1.70
2017-08-14T09:13:25.577Z,1.40
2017-08-14T09:15:53.125Z,1.73
2017-08-14T09:18:20.776Z,1.30
2017-08-14T09:20:48.294Z,1.90
2017-08-14T09:23:15.803Z,1.57
2017-08-14T09:25:43.344Z,1.80
2017-08-14T09:28:10.861Z,1.23
2017-08-14T09:30:38.391Z,1.70
2017-08-14T09:33:05.915Z,1.30
2017-08-14T09:35:33.477Z,1.73
2017-08-14T09:38:00.997Z,1.40
2017-08-14T09:40:28.556Z,1.90
2017-08-14T09:42:56.108Z,1.77
2017-08-14T09:45:23.637Z,1.50
2017-08-14T09:47:51.201Z,1.53
2017-08-14T09:50:18.776Z,1.87
2017-08-14T09:52:46.292Z,1.23
2017-08-14T09:55:13.817Z,1.50
2017-08-14T09:57:41.384Z,1.17
2017-08-14T10:00:08.909Z,1.93
2017-08-14T10:02:36.473Z,1.73
2017-08-14T10:05:03.988Z,3.23
2017-08-14T10:07:32.268Z,1.60
2017-08-14T10:09:59.810Z,1.57
2017-08-14T10:12:27.329Z,1.53
2017-08-14T10:14:54.919Z,1.53
2017-08-14T10:17:22.439Z,2.57
2017-08-14T10:19:49.972Z,1.90
2017-08-14T10:22:17.527Z,1.70
2017-08-14T10:24:45.036Z,1.60
2017-08-14T10:27:12.590Z,2.17
2017-08-14T10:29:40.168Z,1.63
2017-08-14T10:32:07.683Z,1.53
2017-08-14T10:34:35.204Z,1.40
2017-08-14T10:37:02.749Z,1.67
2017-08-14T10:39:30.281Z,1.50
2017-08-14T10:41:57.813Z,1.87
2017-08-14T10:44:25.350Z,3.63
2017-08-14T10:46:52.849Z,2.30
2017-08-14T10:49:20.427Z,1.50
2017-08-14T10:51:47.940Z,2.00
2017-08-14T10:54:15.505Z,1.30
2017-08-14T10:56:43.057Z,1.33
2017-08-14T10:59:10.592Z,1.37
2017-08-14T11:01:38.112Z,1.13
2017-08-14T11:04:05.653Z,1.50
2017-08-14T11:06:33.187Z,1.80
2017-08-14T11:09:00.779Z,1.80
2017-08-14T11:11:28.310Z,1.10
2017-08-14T11:13:55.836Z,1.00
2017-08-14T11:16:23.389Z,1.60
2017-08-14T11:18:50.903Z,1.53
2017-08-14T11:21:18.467Z,1.33
2017-08-14T11:23:45.992Z,1.93
2017-08-14T11:26:13.519Z,1.43
2017-08-14T11:28:41.097Z,1.60
2017-08-14T11:31:08.632Z,1.73
2017-08-14T11:33:36.156Z,1.53
2017-08-14T11:36:03.696Z,1.70
2017-08-14T11:38:31.253Z,1.50
2017-08-14T11:40:58.800Z,1.70
2017-08-14T11:43:26.309Z,1.30
2017-08-14T11:45:53.882Z,1.40
2017-08-14T11:48:21.408Z,1.40
2017-08-14T11:50:48.956Z,1.40
2017-08-14T11:53:16.477Z,1.83
2017-08-14T11:55:44.000Z,1.40
2017-08-14T11:58:11.548Z,1.33
2017-08-14T12:00:39.065Z,1.20
2017-08-14T12:03:06.627Z,1.67
2017-08-14T12:05:34.149Z,2.40
2017-08-14T12:08:01.664Z,1.57
2017-08-14T12:10:29.205Z,2.10
2017-08-14T12:12:56.752Z,1.90
2017-08-14T12:15:25.413Z,1.57
2017-08-14T12:17:52.962Z,1.50
2017-08-14T12:20:20.503Z,1.77
2017-08-14T12:22:48.775Z,1.67
2017-08-14T12:25:17.093Z,1.50
2017-08-14T12:27:44.604Z,2.03
2017-08-14T12:30:12.144Z,1.83
2017-08-14T12:32:39.664Z,1.60
2017-08-14T12:35:07.200Z,1.70
2017-08-14T12:37:34.724Z,1.70
2017-08-14T12:40:02.255Z,1.40
2017-08-14T12:42:29.807Z,2.10
2017-08-14T12:44:57.335Z,1.77
2017-08-14T12:47:24.851Z,1.70
2017-08-14T12:49:52.401Z,2.03
2017-08-14T12:52:19.956Z,1.60
2017-08-14T12:54:47.470Z,1.70
2017-08-14T12:57:14.984Z,1.60
2017-08-14T12:59:42.565Z,1.80
2017-08-14T13:02:10.103Z,1.57
2017-08-14T13:04:38.380Z,1.50
2017-08-14T13:07:05.933Z,1.70
2017-08-14T13:09:33.451Z,1.97
2017-08-14T13:12:00.959Z,1.73
2017-08-14T13:14:28.508Z,2.87
2017-08-14T13:16:56.030Z,1.80
2017-08-14T13:19:24.376Z,2.50
2017-08-14T13:21:51.941Z,2.70
2017-08-14T13:24:19.452Z,2.00
2017-08-14T13:26:46.977Z,1.60
2017-08-14T13:29:14.527Z,2.00
2017-08-14T13:31:42.057Z,2.07
2017-08-14T13:34:09.581Z,1.70
2017-08-14T13:36:37.144Z,2.63
2017-08-14T13:39:04.660Z,1.60
2017-08-14T13:41:32.189Z,1.87
2017-08-14T13:43:59.737Z,1.70
2017-08-14T13:46:27.292Z,1.63
2017-08-14T13:48:54.803Z,2.27
2017-08-14T13:51:22.352Z,3.60
2017-08-14T13:53:49.872Z,2.00
2017-08-14T13:56:17.431Z,2.23
2017-08-14T13:58:44.990Z,1.80
2017-08-14T14:01:12.521Z,3.40
2017-08-14T14:03:40.040Z,2.63
2017-08-14T14:06:07.604Z,1.77
2017-08-14T14:08:35.131Z,2.03
2017-08-14T14:11:02.663Z,2.80
2017-08-14T14:13:30.976Z,1.93
2017-08-14T14:15:58.498Z,1.57
2017-08-14T14:18:26.069Z,1.63
2017-08-14T14:20:53.596Z,3.13
2017-08-14T14:23:21.117Z,1.80
2017-08-14T14:25:48.657Z,2.00
2017-08-14T14:28:16.236Z,1.80
2017-08-14T14:30:43.748Z,2.00
2017-08-14T14:33:11.274Z,2.10
2017-08-14T14:35:38.844Z,1.63
2017-08-14T14:38:06.353Z,1.70
2017-08-14T14:40:33.881Z,2.40
2017-08-14T14:43:01.440Z,2.10
2017-08-14T14:45:28.947Z,2.07
2017-08-14T14:47:56.460Z,3.30
2017-08-14T14:50:24.072Z,2.37
2017-08-14T14:52:51.579Z,1.70
2017-08-14T14:55:19.093Z,2.70
2017-08-14T14:57:46.655Z,2.17
2017-08-14T15:00:14.167Z,5.33
2017-08-14T15:02:41.688Z,2.90
2017-08-14T15:05:09.987Z,2.33
2017-08-14T15:07:37.544Z,2.60
2017-08-14T15:10:05.059Z,2.00
2017-08-14T15:12:32.571Z,2.07
2017-08-14T15:15:00.116Z,2.30
2017-08-14T15:17:27.624Z,1.50
2017-08-14T15:19:55.138Z,1.70
2017-08-14T15:22:22.688Z,2.23
2017-08-14T15:24:50.231Z,1.70
2017-08-14T15:27:17.753Z,1.60
2017-08-14T15:29:45.311Z,1.47
2017-08-14T15:32:12.837Z,1.50
2017-08-14T15:34:40.358Z,1.97
2017-08-14T15:37:07.888Z,1.77
2017-08-14T15:39:35.405Z,2.13
2017-08-14T15:42:02.934Z,1.70
2017-08-14T15:44:30.460Z,2.03
2017-08-14T15:46:57.988Z,2.10
2017-08-14T15:49:25.504Z,1.90
2017-08-14T15:51:53.071Z,1.90
2017-08-14T15:54:20.588Z,2.63
2017-08-14T15:56:48.102Z,1.70
2017-08-14T15:59:15.646Z,2.77
2017-08-14T16:01:43.248Z,2.70
2017-08-14T16:04:10.777Z,1.63
2017-08-14T16:06:38.289Z,1.90
2017-08-14T16:09:06.605Z,2.27
2017-08-14T16:11:34.116Z,2.63
2017-08-14T16:14:01.655Z,2.87
2017-08-14T16:16:29.163Z,3.30
2017-08-14T16:18:56.699Z,3.50
2017-08-14T16:21:24.221Z,2.50
2017-08-14T16:23:51.752Z,2.40
2017-08-14T16:26:19.283Z,2.40
2017-08-14T16:28:46.800Z,1.67
2017-08-14T16:31:14.368Z,2.20
2017-08-14T16:33:41.882Z,1.90
2017-08-14T16:36:09.391Z,1.90
2017-08-14T16:38:37.695Z,1.80
2017-08-14T16:41:05.220Z,1.73
2017-08-14T16:43:33.564Z,1.70
2017-08-14T16:46:01.084Z,1.70
2017-08-14T16:48:28.613Z,1.80
2017-08-14T16:50:56.168Z,1.77
2017-08-14T16:53:23.725Z,2.47
2017-08-14T16:55:51.283Z,1.80
2017-08-14T16:58:18.806Z,1.63
2017-08-14T17:00:46.336Z,1.87
2017-08-14T17:03:13.872Z,1.70
2017-08-14T17:05:41.397Z,2.70
2017-08-14T17:08:08.922Z,1.93
2017-08-14T17:10:36.440Z,1.83
2017-08-14T17:13:04.007Z,1.53
2017-08-14T17:15:31.531Z,1.60
2017-08-14T17:17:59.064Z,9.60
2017-08-14T17:20:26.614Z,1.73
2017-08-14T17:22:54.155Z,1.67
2017-08-14T17:25:21.701Z,1.70
2017-08-14T17:27:49.233Z,1.80
2017-08-14T17:30:16.788Z,2.03
2017-08-14T17:32:44.312Z,2.40
2017-08-14T17:35:11.885Z,2.67
2017-08-14T17:37:39.429Z,2.43
2017-08-14T17:40:22.284Z,2.20
2017-08-14T17:42:50.557Z,2.10
2017-08-14T17:45:18.110Z,1.80
2017-08-14T17:47:45.649Z,2.00
2017-08-14T17:50:13.174Z,1.90
2017-08-14T17:52:40.723Z,4.57
2017-08-14T17:55:08.269Z,5.53
2017-08-14T17:57:35.804Z,3.50
2017-08-14T18:00:03.320Z,3.17
2017-08-14T18:02:30.886Z,2.80
2017-08-14T18:04:58.405Z,2.70
2017-08-14T18:07:25.925Z,2.10
2017-08-14T18:09:53.451Z,1.70
2017-08-14T18:12:22.091Z,2.07
2017-08-14T18:14:49.708Z,1.90
2017-08-14T18:17:17.284Z,2.10
2017-08-14T18:19:44.947Z,1.97
2017-08-14T18:22:12.503Z,2.30
2017-08-14T18:24:40.045Z,2.60
2017-08-14T18:27:07.619Z,4.40
2017-08-14T18:29:35.149Z,2.67
2017-08-14T18:32:02.699Z,2.50
2017-08-14T18:34:30.221Z,1.90
2017-08-14T18:36:57.795Z,2.30
2017-08-14T18:39:25.323Z,2.00
2017-08-14T18:41:52.872Z,1.97
2017-08-14T18:44:21.177Z,2.50
2017-08-14T18:46:48.721Z,4.10
2017-08-14T18:49:16.251Z,2.30
2017-08-14T18:51:43.797Z,2.37
2017-08-14T18:54:11.354Z,2.60
2017-08-14T18:56:38.911Z,2.27
2017-08-14T18:59:06.625Z,4.20
2017-08-14T19:01:34.156Z,2.60
2017-08-14T19:04:01.684Z,3.07
2017-08-14T19:06:29.236Z,2.90
2017-08-14T19:08:58.422Z,3.60
2017-08-14T19:11:24.320Z,2.60
2017-08-14T19:13:51.836Z,3.00
2017-08-14T19:16:19.389Z,2.73
2017-08-14T19:18:46.905Z,2.63
2017-08-14T19:21:14.462Z,2.70
2017-08-14T19:23:41.998Z,2.97
2017-08-14T19:26:09.516Z,2.63
2017-08-14T19:28:37.065Z,2.50
2017-08-14T19:31:04.653Z,2.60
2017-08-14T19:33:32.930Z,2.53
2017-08-14T19:36:00.496Z,5.17
2017-08-14T19:38:28.868Z,2.10
2017-08-14T19:40:56.414Z,2.90
2017-08-14T19:43:23.964Z,2.67
2017-08-14T19:45:52.279Z,2.00
2017-08-14T19:48:19.801Z,2.40
2017-08-14T19:50:47.328Z,2.40
2017-08-14T19:53:14.869Z,2.47
2017-08-14T19:55:42.388Z,2.40
2017-08-14T19:58:09.933Z,5.87
2017-08-14T20:00:37.454Z,2.10
2017-08-14T20:03:05.004Z,2.77
2017-08-14T20:05:32.524Z,2.33
2017-08-14T20:08:00.125Z,2.67
2017-08-14T20:10:27.650Z,2.40
2017-08-14T20:12:55.220Z,2.10
2017-08-14T20:15:22.741Z,2.50
2017-08-14T20:17:51.019Z,4.30
2017-08-14T20:20:18.547Z,2.30
2017-08-14T20:22:46.089Z,2.17
2017-08-14T20:25:13.628Z,2.40
2017-08-14T20:27:41.187Z,2.43
2017-08-14T20:30:08.704Z,2.30
2017-08-14T20:32:36.875Z,2.10
2017-08-14T20:35:05.171Z,2.30
2017-08-14T20:37:32.727Z,2.07
2017-08-14T20:40:00.254Z,2.30
2017-08-14T20:42:27.785Z,3.03
2017-08-14T20:44:55.307Z,2.60
2017-08-14T20:47:22.864Z,2.67
2017-08-14T20:49:50.379Z,2.57
2017-08-14T20:52:17.900Z,2.37
2017-08-14T20:54:45.440Z,3.03
2017-08-14T20:57:12.956Z,2.50
2017-08-14T20:59:40.511Z,2.57
2017-08-14T21:02:08.030Z,2.30
2017-08-14T21:04:35.588Z,2.90
2017-08-14T21:07:03.112Z,2.37
2017-08-14T21:09:30.667Z,3.03
2017-08-14T21:11:58.184Z,2.60
2017-08-14T21:14:25.719Z,2.50
2017-08-14T21:16:53.259Z,2.63
2017-08-14T21:19:20.785Z,2.63
2017-08-14T21:21:48.340Z,2.80
2017-08-14T21:24:15.870Z,2.53
2017-08-14T21:26:43.379Z,2.50
2017-08-14T21:29:10.948Z,2.97
2017-08-14T21:31:38.487Z,2.80
2017-08-14T21:34:06.038Z,3.17
2017-08-14T21:36:33.628Z,2.50
2017-08-14T21:39:01.168Z,3.33
2017-08-14T21:41:28.703Z,2.97
2017-08-14T21:43:56.991Z,2.30
2017-08-14T21:46:24.548Z,3.37
2017-08-14T21:48:52.852Z,2.20
2017-08-14T21:51:20.397Z,2.13
2017-08-14T21:53:47.974Z,3.43
2017-08-14T21:56:15.490Z,3.63
2017-08-14T21:58:43.776Z,2.90
2017-08-14T22:01:11.318Z,2.07
2017-08-14T22:03:38.837Z,2.57
2017-08-14T22:06:06.365Z,4.40
2017-08-14T22:08:33.903Z,2.77
2017-08-14T22:11:01.430Z,2.80
2017-08-14T22:13:29.001Z,2.73
2017-08-14T22:15:57.295Z,2.60
2017-08-14T22:18:24.821Z,3.30
2017-08-14T22:20:52.372Z,2.50
2017-08-14T22:23:19.939Z,2.30
2017-08-14T22:25:47.475Z,2.30
2017-08-14T22:28:14.996Z,2.83
2017-08-14T22:30:42.543Z,3.00
2017-08-14T22:33:10.086Z,2.50
2017-08-14T22:35:37.608Z,2.50
2017-08-14T22:38:05.149Z,2.57
2017-08-14T22:40:32.677Z,2.50
2017-08-14T22:43:00.228Z,3.07
2017-08-14T22:45:27.745Z,2.33
2017-08-14T22:47:55.304Z,2.43
2017-08-14T22:50:22.816Z,2.73
2017-08-14T22:52:50.332Z,3.40
2017-08-14T22:55:17.884Z,10.30
2017-08-14T22:57:45.412Z,8.10
2017-08-14T23:00:12.947Z,5.83
2017-08-14T23:02:40.513Z,4.57
2017-08-14T23:05:08.084Z,4.97
2017-08-14T23:07:35.619Z,4.07
2017-08-14T23:10:03.153Z,3.40
2017-08-14T23:12:31.478Z,3.60
2017-08-14T23:14:58.995Z,3.87
2017-08-14T23:17:26.548Z,3.90
2017-08-14T23:19:54.844Z,3.70
2017-08-14T23:22:22.359Z,3.10
2017-08-14T23:24:49.895Z,2.83
2017-08-14T23:27:17.404Z,3.50
2017-08-14T23:29:44.964Z,3.73
2017-08-14T23:32:12.489Z,3.73
2017-08-14T23:34:40.018Z,3.87
2017-08-14T23:37:07.557Z,4.10
2017-08-14T23:39:35.119Z,4.00
2017-08-14T23:42:02.632Z,5.53
2017-08-14T23:44:30.911Z,3.90
2017-08-14T23:46:59.215Z,3.93
2017-08-14T23:49:26.736Z,3.47
2017-08-14T23:51:55.052Z,5.00
2017-08-14T23:54:22.596Z,4.80
2017-08-14T23:56:50.124Z,4.13
2017-08-14T23:59:18.429Z,4.60
